Brevik Bridge — VRHY7 — position and weather

sailwx.info

Track history (hours):
 
Tides and Currents Weather Stations Pressure Air Temp Water Temp Dewpoint Dewpoint Depression Visibility Wind Speed Wind Dir Waves Ship Positions

Brevik Bridge

Last reported at 2014-Jul-14 08:32 UTC. Time now 2014-Jul-24 02:21 UTC.
Position N 01°15' E 103°44'.
Warning: this ship's position is 9 days out of date.

Length 268 m; draft 12.6 m.

Type: Cargo ship. MMSI: 477866200.

Date/timePositionNaut miles runAvg speedWind from/ knotsBaromVisibWave heightAir tempDewpointWater temp
2014-Jul-14 08:32N 01°15' E 103°44'2 2.2
2014-Jul-14 07:30N 01°17' E 103°46'0 0.0
2014-Jul-14 06:30N 01°17' E 103°46'0 0.0
2014-Jul-14 05:33N 01°17' E 103°46'0 0.0
2014-Jul-14 04:30N 01°17' E 103°46'0 0.0
2014-Jul-14 03:21N 01°17' E 103°46'  
2014-Jul-11 18:27N 01°16' E 103°57'4 4.7
2014-Jul-11 17:32N 01°14' E 103°54'  
2014-Jul-07 12:33N 22°20' E 114°05'1111.0
2014-Jul-07 11:33N 22°23' E 113°54'4 4.1
2014-Jul-07 10:30N 22°27' E 113°54'0 0.0
2014-Jul-07 09:33N 22°27' E 113°54'0 0.0
2014-Jul-07 08:33N 22°27' E 113°54'0 0.1
2014-Jul-07 07:33N 22°27' E 113°54'0 0.1
2014-Jul-07 06:33N 22°27' E 113°54'0 0.1
2014-Jul-07 05:27N 22°27' E 113°54'0 0.1
2014-Jul-07 04:33N 22°27' E 113°54'0 0.0
2014-Jul-07 03:30N 22°27' E 113°54'0 0.0
2014-Jul-07 02:33N 22°27' E 113°54'3 3.1
2014-Jul-07 01:33N 22°24' E 113°54'11 9.1
2014-Jul-07 00:19N 22°20' E 114°05'2 0.3
2014-Jul-06 19:32N 22°18' E 114°05'3 2.7
2014-Jul-06 18:32N 22°21' E 114°07'0 0.0
2014-Jul-06 06:33N 22°20' E 114°07'17816.0
2014-Jul-05 19:26N 23°03' E 117°14'3919.1
2014-Jul-05 17:24N 23°30' E 117°44'1619.4
2014-Jul-05 16:33N 23°42' E 117°57'2020.0
2014-Jul-05 15:33N 23°55' E 118°13'1918.9
2014-Jul-05 14:33N 24°13' E 118°17'1414.0
2014-Jul-05 13:33N 24°24' E 118°07'6 5.2
2014-Jul-05 12:23N 24°27' E 118°01'0 0.0
2014-Jul-05 10:29N 24°27' E 118°01'0 0.0
2014-Jul-05 07:29N 24°27' E 118°01'0 0.0
2014-Jul-05 06:05N 24°27' E 118°01'0 0.0
2014-Jul-05 05:29N 24°27' E 118°01'0 0.0
2014-Jul-05 04:29N 24°27' E 118°01'4 3.8
2014-Jul-05 03:33N 24°25' E 118°04'7 7.2
2014-Jul-05 02:33N 24°20' E 118°10'5 5.2
2014-Jul-05 01:33N 24°16' E 118°14'6 5.8
2014-Jul-05 00:33N 24°14' E 118°20'1111.3
2014-Jul-04 23:33N 24°15' E 118°32'1514.9
2014-Jul-04 22:33N 24°21' E 118°47'1514.9
2014-Jul-04 21:32N 24°28' E 119°02'1615.2
2014-Jul-04 20:29N 24°35' E 119°18'6015.2
2014-Jul-04 16:33N 25°02' E 120°16'1615.6
2014-Jul-04 15:33N 25°05' E 120°33'2315.6
2014-Jul-04 14:05N 25°13' E 120°57'915.1
2014-Jul-04 13:28N 25°16' E 121°07'  
Track history (hours):
 
Tides and Currents Weather Stations Pressure Air Temp Water Temp Dewpoint Dewpoint Depression Visibility Wind Speed Wind Dir Waves Ship Positions

Brevik Bridge

Last reported at 2014-Jul-14 08:32 UTC. Time now 2014-Jul-24 02:21 UTC.
Position N 01°15' E 103°44'.
Warning: this ship's position is 9 days out of date.

Length 268 m; draft 12.6 m.

Type: Cargo ship. MMSI: 477866200.

Date/timePositionNaut miles runAvg speedWind from/ knotsBaromVisibWave heightAir tempDewpointWater temp
2014-Jul-14 08:32N 01°15' E 103°44'2 2.2
2014-Jul-14 07:30N 01°17' E 103°46'0 0.0
2014-Jul-14 06:30N 01°17' E 103°46'0 0.0
2014-Jul-14 05:33N 01°17' E 103°46'0 0.0
2014-Jul-14 04:30N 01°17' E 103°46'0 0.0
2014-Jul-14 03:21N 01°17' E 103°46'  
2014-Jul-11 18:27N 01°16' E 103°57'4 4.7
2014-Jul-11 17:32N 01°14' E 103°54'  
2014-Jul-07 12:33N 22°20' E 114°05'1111.0
2014-Jul-07 11:33N 22°23' E 113°54'4 4.1
2014-Jul-07 10:30N 22°27' E 113°54'0 0.0
2014-Jul-07 09:33N 22°27' E 113°54'0 0.0
2014-Jul-07 08:33N 22°27' E 113°54'0 0.1
2014-Jul-07 07:33N 22°27' E 113°54'0 0.1
2014-Jul-07 06:33N 22°27' E 113°54'0 0.1
2014-Jul-07 05:27N 22°27' E 113°54'0 0.1
2014-Jul-07 04:33N 22°27' E 113°54'0 0.0
2014-Jul-07 03:30N 22°27' E 113°54'0 0.0
2014-Jul-07 02:33N 22°27' E 113°54'3 3.1
2014-Jul-07 01:33N 22°24' E 113°54'11 9.1
2014-Jul-07 00:19N 22°20' E 114°05'2 0.3
2014-Jul-06 19:32N 22°18' E 114°05'3 2.7
2014-Jul-06 18:32N 22°21' E 114°07'0 0.0
2014-Jul-06 06:33N 22°20' E 114°07'17816.0
2014-Jul-05 19:26N 23°03' E 117°14'3919.1
2014-Jul-05 17:24N 23°30' E 117°44'1619.4
2014-Jul-05 16:33N 23°42' E 117°57'2020.0
2014-Jul-05 15:33N 23°55' E 118°13'1918.9
2014-Jul-05 14:33N 24°13' E 118°17'1414.0
2014-Jul-05 13:33N 24°24' E 118°07'6 5.2
2014-Jul-05 12:23N 24°27' E 118°01'0 0.0
2014-Jul-05 10:29N 24°27' E 118°01'0 0.0
2014-Jul-05 07:29N 24°27' E 118°01'0 0.0
2014-Jul-05 06:05N 24°27' E 118°01'0 0.0
2014-Jul-05 05:29N 24°27' E 118°01'0 0.0
2014-Jul-05 04:29N 24°27' E 118°01'4 3.8
2014-Jul-05 03:33N 24°25' E 118°04'7 7.2
2014-Jul-05 02:33N 24°20' E 118°10'5 5.2
2014-Jul-05 01:33N 24°16' E 118°14'6 5.8
2014-Jul-05 00:33N 24°14' E 118°20'1111.3
2014-Jul-04 23:33N 24°15' E 118°32'1514.9
2014-Jul-04 22:33N 24°21' E 118°47'1514.9
2014-Jul-04 21:32N 24°28' E 119°02'1615.2
2014-Jul-04 20:29N 24°35' E 119°18'6015.2
2014-Jul-04 16:33N 25°02' E 120°16'1615.6
2014-Jul-04 15:33N 25°05' E 120°33'2315.6
2014-Jul-04 14:05N 25°13' E 120°57'915.1
2014-Jul-04 13:28N 25°16' E 121°07'  

Dump ship's entire track history